sensor_id;sensor_type;location;lat;lon;timestamp;pressure;altitude;pressure_sealevel;temperature;humidity
80585;BME280;70137;56.482;9.154;2024-01-25T00:01:12;101017.69;;;6.19;86.32
80585;BME280;70137;56.482;9.154;2024-01-25T00:03:37;101033.94;;;6.20;86.39
80585;BME280;70137;56.482;9.154;2024-01-25T00:06:04;101035.72;;;6.19;86.09
80585;BME280;70137;56.482;9.154;2024-01-25T00:08:30;101041.66;;;6.20;86.39
80585;BME280;70137;56.482;9.154;2024-01-25T00:10:56;101056.16;;;6.21;86.24
80585;BME280;70137;56.482;9.154;2024-01-25T00:13:21;101062.13;;;6.21;85.76
80585;BME280;70137;56.482;9.154;2024-01-25T00:15:47;101070.81;;;6.20;86.50
80585;BME280;70137;56.482;9.154;2024-01-25T00:18:12;101072.44;;;6.21;85.86
80585;BME280;70137;56.482;9.154;2024-01-25T00:20:37;101059.44;;;6.23;85.85
80585;BME280;70137;56.482;9.154;2024-01-25T00:23:03;101053.47;;;6.22;86.26
80585;BME280;70137;56.482;9.154;2024-01-25T00:25:28;101065.53;;;6.22;85.48
80585;BME280;70137;56.482;9.154;2024-01-25T00:27:54;101056.16;;;6.21;86.12
80585;BME280;70137;56.482;9.154;2024-01-25T00:30:19;101044.25;;;6.20;85.71
80585;BME280;70137;56.482;9.154;2024-01-25T00:32:44;101078.66;;;6.19;86.08
80585;BME280;70137;56.482;9.154;2024-01-25T00:35:10;101049.63;;;6.17;85.97
80585;BME280;70137;56.482;9.154;2024-01-25T00:37:39;101051.53;;;6.15;85.58
80585;BME280;70137;56.482;9.154;2024-01-25T00:40:05;101048.25;;;6.13;86.51
80585;BME280;70137;56.482;9.154;2024-01-25T00:42:31;101050.97;;;6.11;86.98
80585;BME280;70137;56.482;9.154;2024-01-25T00:45:00;101032.50;;;6.06;86.63
80585;BME280;70137;56.482;9.154;2024-01-25T00:47:26;101036.03;;;6.05;86.30
80585;BME280;70137;56.482;9.154;2024-01-25T00:49:51;101026.81;;;6.02;86.77
80585;BME280;70137;56.482;9.154;2024-01-25T00:52:17;101051.84;;;6.00;86.59
80585;BME280;70137;56.482;9.154;2024-01-25T00:54:42;101045.19;;;5.98;86.60
80585;BME280;70137;56.482;9.154;2024-01-25T00:57:09;101040.97;;;5.97;86.68
80585;BME280;70137;56.482;9.154;2024-01-25T00:59:35;101057.50;;;5.94;86.44
80585;BME280;70137;56.482;9.154;2024-01-25T01:02:03;101084.16;;;5.93;86.38
80585;BME280;70137;56.482;9.154;2024-01-25T01:04:31;101097.97;;;5.92;86.68
80585;BME280;70137;56.482;9.154;2024-01-25T01:06:56;101102.44;;;5.90;87.15
80585;BME280;70137;56.482;9.154;2024-01-25T01:09:22;101118.78;;;5.89;86.82
80585;BME280;70137;56.482;9.154;2024-01-25T01:11:47;101124.84;;;5.88;87.01
80585;BME280;70137;56.482;9.154;2024-01-25T01:14:13;101135.25;;;5.87;87.21
80585;BME280;70137;56.482;9.154;2024-01-25T01:16:38;101139.59;;;5.86;87.32
80585;BME280;70137;56.482;9.154;2024-01-25T01:19:03;101145.00;;;5.83;87.26
80585;BME280;70137;56.482;9.154;2024-01-25T01:21:33;101127.94;;;5.82;87.39
80585;BME280;70137;56.482;9.154;2024-01-25T01:23:59;101132.47;;;5.79;87.84
80585;BME280;70137;56.482;9.154;2024-01-25T01:26:25;101137.88;;;5.75;87.77
80585;BME280;70137;56.482;9.154;2024-01-25T01:28:50;101152.75;;;5.72;88.03
80585;BME280;70137;56.482;9.154;2024-01-25T01:31:15;101151.13;;;5.71;88.20
80585;BME280;70137;56.482;9.154;2024-01-25T01:33:41;101167.59;;;5.68;88.05
80585;BME280;70137;56.482;9.154;2024-01-25T01:36:06;101180.56;;;5.67;87.68
80585;BME280;70137;56.482;9.154;2024-01-25T01:38:32;101177.31;;;5.65;87.49
80585;BME280;70137;56.482;9.154;2024-01-25T01:40:57;101151.84;;;5.62;87.90
80585;BME280;70137;56.482;9.154;2024-01-25T01:43:22;101157.81;;;5.62;88.67
80585;BME280;70137;56.482;9.154;2024-01-25T01:45:48;101160.25;;;5.64;88.65
80585;BME280;70137;56.482;9.154;2024-01-25T01:48:14;101154.16;;;5.65;88.64
80585;BME280;70137;56.482;9.154;2024-01-25T01:50:40;101172.97;;;5.65;88.48
80585;BME280;70137;56.482;9.154;2024-01-25T01:53:06;101168.53;;;5.67;89.25
80585;BME280;70137;56.482;9.154;2024-01-25T01:55:31;101195.88;;;5.68;88.74
80585;BME280;70137;56.482;9.154;2024-01-25T01:57:57;101217.28;;;5.69;89.32
80585;BME280;70137;56.482;9.154;2024-01-25T02:00:24;101207.72;;;5.71;89.09
80585;BME280;70137;56.482;9.154;2024-01-25T02:02:49;101201.50;;;5.73;89.21
80585;BME280;70137;56.482;9.154;2024-01-25T02:05:15;101204.88;;;5.74;89.05
80585;BME280;70137;56.482;9.154;2024-01-25T02:07:42;101197.97;;;5.74;89.30
80585;BME280;70137;56.482;9.154;2024-01-25T02:10:08;101205.56;;;5.76;89.45
80585;BME280;70137;56.482;9.154;2024-01-25T02:12:34;101188.50;;;5.75;88.80
80585;BME280;70137;56.482;9.154;2024-01-25T02:14:59;101192.84;;;5.74;89.08
80585;BME280;70137;56.482;9.154;2024-01-25T02:17:24;101197.97;;;5.74;89.26
80585;BME280;70137;56.482;9.154;2024-01-25T02:19:50;101205.81;;;5.73;88.80
80585;BME280;70137;56.482;9.154;2024-01-25T02:22:18;101235.06;;;5.72;88.65
80585;BME280;70137;56.482;9.154;2024-01-25T02:24:44;101253.28;;;5.69;88.76
80585;BME280;70137;56.482;9.154;2024-01-25T02:27:09;101263.94;;;5.64;88.52
80585;BME280;70137;56.482;9.154;2024-01-25T02:29:34;101274.47;;;5.61;88.82
80585;BME280;70137;56.482;9.154;2024-01-25T02:32:00;101278.81;;;5.61;88.61
80585;BME280;70137;56.482;9.154;2024-01-25T02:34:25;101287.47;;;5.60;89.02
80585;BME280;70137;56.482;9.154;2024-01-25T02:36:50;101288.38;;;5.59;88.87
80585;BME280;70137;56.482;9.154;2024-01-25T02:39:16;101309.19;;;5.56;89.18
80585;BME280;70137;56.482;9.154;2024-01-25T02:41:42;101306.84;;;5.53;89.13
80585;BME280;70137;56.482;9.154;2024-01-25T02:44:07;101311.19;;;5.52;89.56
80585;BME280;70137;56.482;9.154;2024-01-25T02:46:33;101324.97;;;5.51;89.31
80585;BME280;70137;56.482;9.154;2024-01-25T02:48:58;101330.13;;;5.51;89.67
80585;BME280;70137;56.482;9.154;2024-01-25T02:51:24;101330.13;;;5.51;89.13
80585;BME280;70137;56.482;9.154;2024-01-25T02:53:49;101338.66;;;5.52;89.77
80585;BME280;70137;56.482;9.154;2024-01-25T02:56:14;101334.31;;;5.52;89.64
80585;BME280;70137;56.482;9.154;2024-01-25T02:58:40;101328.38;;;5.52;89.86
80585;BME280;70137;56.482;9.154;2024-01-25T03:01:05;101321.69;;;5.49;89.67
80585;BME280;70137;56.482;9.154;2024-01-25T03:03:30;101331.97;;;5.49;89.53
80585;BME280;70137;56.482;9.154;2024-01-25T03:05:56;101349.28;;;5.47;90.62
80585;BME280;70137;56.482;9.154;2024-01-25T03:08:21;101339.81;;;5.47;90.34
80585;BME280;70137;56.482;9.154;2024-01-25T03:10:47;101338.97;;;5.47;90.25
80585;BME280;70137;56.482;9.154;2024-01-25T03:13:15;101322.75;;;5.46;90.44
80585;BME280;70137;56.482;9.154;2024-01-25T03:15:44;101335.59;;;5.46;90.27
80585;BME280;70137;56.482;9.154;2024-01-25T03:18:10;101330.44;;;5.46;90.53
80585;BME280;70137;56.482;9.154;2024-01-25T03:20:35;101331.38;;;5.45;90.83
80585;BME280;70137;56.482;9.154;2024-01-25T03:23:01;101352.91;;;5.44;90.88
80585;BME280;70137;56.482;9.154;2024-01-25T03:25:26;101343.53;;;5.43;90.66
80585;BME280;70137;56.482;9.154;2024-01-25T03:27:52;101363.88;;;5.46;90.82
80585;BME280;70137;56.482;9.154;2024-01-25T03:30:17;101363.75;;;5.48;90.58
80585;BME280;70137;56.482;9.154;2024-01-25T03:32:42;101367.88;;;5.51;90.88
80585;BME280;70137;56.482;9.154;2024-01-25T03:35:08;101371.16;;;5.53;90.64
80585;BME280;70137;56.482;9.154;2024-01-25T03:37:33;101390.78;;;5.54;91.02
80585;BME280;70137;56.482;9.154;2024-01-25T03:39:59;101374.41;;;5.55;90.29
80585;BME280;70137;56.482;9.154;2024-01-25T03:42:24;101379.44;;;5.56;90.42
80585;BME280;70137;56.482;9.154;2024-01-25T03:44:49;101373.47;;;5.56;90.78
80585;BME280;70137;56.482;9.154;2024-01-25T03:47:15;101393.13;;;5.57;90.57
80585;BME280;70137;56.482;9.154;2024-01-25T03:49:40;101420.59;;;5.56;90.23
80585;BME280;70137;56.482;9.154;2024-01-25T03:52:05;101426.56;;;5.57;90.72
80585;BME280;70137;56.482;9.154;2024-01-25T03:54:31;101436.84;;;5.57;90.78
80585;BME280;70137;56.482;9.154;2024-01-25T03:56:57;101447.94;;;5.57;90.62
80585;BME280;70137;56.482;9.154;2024-01-25T03:59:22;101460.69;;;5.59;91.54
80585;BME280;70137;56.482;9.154;2024-01-25T04:01:47;101463.25;;;5.59;90.87
80585;BME280;70137;56.482;9.154;2024-01-25T04:04:14;101469.34;;;5.58;91.14
80585;BME280;70137;56.482;9.154;2024-01-25T04:06:43;101477.06;;;5.58;90.72
80585;BME280;70137;56.482;9.154;2024-01-25T04:09:09;101477.28;;;5.55;90.85
80585;BME280;70137;56.482;9.154;2024-01-25T04:11:36;101472.38;;;5.52;90.70
80585;BME280;70137;56.482;9.154;2024-01-25T04:14:02;101488.75;;;5.51;90.48
80585;BME280;70137;56.482;9.154;2024-01-25T04:16:27;101483.81;;;5.47;90.67
80585;BME280;70137;56.482;9.154;2024-01-25T04:18:53;101487.53;;;5.43;90.29
80585;BME280;70137;56.482;9.154;2024-01-25T04:21:18;101494.63;;;5.40;90.04
80585;BME280;70137;56.482;9.154;2024-01-25T04:23:44;101509.59;;;5.35;90.10
80585;BME280;70137;56.482;9.154;2024-01-25T04:26:09;101516.72;;;5.31;90.27
80585;BME280;70137;56.482;9.154;2024-01-25T04:28:35;101524.63;;;5.28;90.81
80585;BME280;70137;56.482;9.154;2024-01-25T04:31:02;101538.53;;;5.26;90.55
80585;BME280;70137;56.482;9.154;2024-01-25T04:33:28;101526.09;;;5.20;90.68
80585;BME280;70137;56.482;9.154;2024-01-25T04:35:53;101536.72;;;5.15;91.09
80585;BME280;70137;56.482;9.154;2024-01-25T04:38:19;101542.78;;;5.14;91.03
80585;BME280;70137;56.482;9.154;2024-01-25T04:40:44;101538.66;;;5.11;90.78
80585;BME280;70137;56.482;9.154;2024-01-25T04:43:09;101538.78;;;5.10;90.71
80585;BME280;70137;56.482;9.154;2024-01-25T04:45:36;101534.78;;;5.06;91.37
80585;BME280;70137;56.482;9.154;2024-01-25T04:48:02;101546.72;;;5.07;91.73
80585;BME280;70137;56.482;9.154;2024-01-25T04:50:27;101558.03;;;5.04;91.91
80585;BME280;70137;56.482;9.154;2024-01-25T04:52:53;101561.31;;;5.06;91.92
80585;BME280;70137;56.482;9.154;2024-01-25T04:55:18;101573.13;;;5.09;92.63
80585;BME280;70137;56.482;9.154;2024-01-25T04:57:45;101573.81;;;5.11;91.91
80585;BME280;70137;56.482;9.154;2024-01-25T05:00:11;101576.41;;;5.11;92.55
80585;BME280;70137;56.482;9.154;2024-01-25T05:02:36;101596.75;;;5.14;93.14
80585;BME280;70137;56.482;9.154;2024-01-25T05:05:02;101597.69;;;5.13;93.10
80585;BME280;70137;56.482;9.154;2024-01-25T05:07:27;101598.50;;;5.13;92.61
80585;BME280;70137;56.482;9.154;2024-01-25T05:09:52;101589.25;;;5.11;92.80
80585;BME280;70137;56.482;9.154;2024-01-25T05:12:18;101603.03;;;5.10;92.89
80585;BME280;70137;56.482;9.154;2024-01-25T05:14:44;101608.16;;;5.10;92.99
80585;BME280;70137;56.482;9.154;2024-01-25T05:17:09;101608.28;;;5.08;92.77
80585;BME280;70137;56.482;9.154;2024-01-25T05:19:35;101604.28;;;5.04;93.07
80585;BME280;70137;56.482;9.154;2024-01-25T05:22:00;101615.59;;;5.02;93.13
80585;BME280;70137;56.482;9.154;2024-01-25T05:24:26;101611.38;;;5.01;93.85
80585;BME280;70137;56.482;9.154;2024-01-25T05:26:52;101606.56;;;4.96;93.59
80585;BME280;70137;56.482;9.154;2024-01-25T05:29:17;101608.53;;;4.93;93.03
80585;BME280;70137;56.482;9.154;2024-01-25T05:31:43;101603.81;;;4.86;93.62
80585;BME280;70137;56.482;9.154;2024-01-25T05:34:08;101627.97;;;4.84;93.31
80585;BME280;70137;56.482;9.154;2024-01-25T05:36:33;101639.25;;;4.81;93.70
80585;BME280;70137;56.482;9.154;2024-01-25T05:38:59;101640.16;;;4.80;94.30
80585;BME280;70137;56.482;9.154;2024-01-25T05:41:24;101655.81;;;4.77;94.23
80585;BME280;70137;56.482;9.154;2024-01-25T05:43:49;101653.44;;;4.74;93.09
80585;BME280;70137;56.482;9.154;2024-01-25T05:46:15;101654.44;;;4.72;93.28
80585;BME280;70137;56.482;9.154;2024-01-25T05:48:40;101649.53;;;4.69;93.67
80585;BME280;70137;56.482;9.154;2024-01-25T05:51:06;101647.88;;;4.68;93.81
80585;BME280;70137;56.482;9.154;2024-01-25T05:53:31;101655.69;;;4.66;94.03
80585;BME280;70137;56.482;9.154;2024-01-25T05:55:57;101677.88;;;4.67;94.50
80585;BME280;70137;56.482;9.154;2024-01-25T05:58:22;101677.88;;;4.67;95.13
80585;BME280;70137;56.482;9.154;2024-01-25T06:00:48;101676.25;;;4.66;94.71
80585;BME280;70137;56.482;9.154;2024-01-25T06:03:13;101690.03;;;4.65;94.58
80585;BME280;70137;56.482;9.154;2024-01-25T06:05:38;101705.44;;;4.65;95.70
80585;BME280;70137;56.482;9.154;2024-01-25T06:08:04;101708.72;;;4.67;94.87
80585;BME280;70137;56.482;9.154;2024-01-25T06:10:29;101714.78;;;4.66;95.73
80585;BME280;70137;56.482;9.154;2024-01-25T06:12:54;101716.63;;;4.64;95.24
80585;BME280;70137;56.482;9.154;2024-01-25T06:15:20;101728.53;;;4.65;95.46
80585;BME280;70137;56.482;9.154;2024-01-25T06:17:45;101737.25;;;4.63;95.26
80585;BME280;70137;56.482;9.154;2024-01-25T06:20:11;101732.31;;;4.59;94.58
80585;BME280;70137;56.482;9.154;2024-01-25T06:22:36;101746.91;;;4.59;95.72
80585;BME280;70137;56.482;9.154;2024-01-25T06:25:02;101746.19;;;4.57;94.84
80585;BME280;70137;56.482;9.154;2024-01-25T06:27:29;101745.53;;;4.53;94.67
80585;BME280;70137;56.482;9.154;2024-01-25T06:29:54;101744.00;;;4.51;95.46
80585;BME280;70137;56.482;9.154;2024-01-25T06:32:19;101745.03;;;4.48;95.23
80585;BME280;70137;56.482;9.154;2024-01-25T06:34:45;101765.56;;;4.48;96.34
80585;BME280;70137;56.482;9.154;2024-01-25T06:37:10;101764.75;;;4.48;95.27
80585;BME280;70137;56.482;9.154;2024-01-25T06:39:37;101769.06;;;4.47;95.35
80585;BME280;70137;56.482;9.154;2024-01-25T06:42:03;101772.66;;;4.45;96.43
80585;BME280;70137;56.482;9.154;2024-01-25T06:44:28;101776.22;;;4.42;95.96
80585;BME280;70137;56.482;9.154;2024-01-25T06:46:54;101787.53;;;4.40;96.17
80585;BME280;70137;56.482;9.154;2024-01-25T06:49:19;101787.41;;;4.41;95.56
80585;BME280;70137;56.482;9.154;2024-01-25T06:51:45;101778.91;;;4.41;96.70
80585;BME280;70137;56.482;9.154;2024-01-25T06:54:10;101791.72;;;4.41;96.84
80585;BME280;70137;56.482;9.154;2024-01-25T06:56:35;101790.09;;;4.40;96.75
80585;BME280;70137;56.482;9.154;2024-01-25T06:59:01;101791.94;;;4.38;96.46
80585;BME280;70137;56.482;9.154;2024-01-25T07:01:26;101807.44;;;4.36;96.48
80585;BME280;70137;56.482;9.154;2024-01-25T07:03:53;101802.31;;;4.36;96.25
80585;BME280;70137;56.482;9.154;2024-01-25T07:06:19;101812.69;;;4.35;97.37
80585;BME280;70137;56.482;9.154;2024-01-25T07:08:45;101822.19;;;4.32;96.60
80585;BME280;70137;56.482;9.154;2024-01-25T07:11:10;101829.19;;;4.30;96.23
80585;BME280;70137;56.482;9.154;2024-01-25T07:13:35;101831.84;;;4.29;96.98
80585;BME280;70137;56.482;9.154;2024-01-25T07:16:01;101829.28;;;4.29;96.61
80585;BME280;70137;56.482;9.154;2024-01-25T07:18:26;101824.97;;;4.29;97.77
80585;BME280;70137;56.482;9.154;2024-01-25T07:20:51;101829.19;;;4.30;97.33
80585;BME280;70137;56.482;9.154;2024-01-25T07:23:17;101826.72;;;4.29;96.44
80585;BME280;70137;56.482;9.154;2024-01-25T07:25:42;101825.16;;;4.26;97.30
80585;BME280;70137;56.482;9.154;2024-01-25T07:28:08;101822.69;;;4.25;96.26
80585;BME280;70137;56.482;9.154;2024-01-25T07:30:33;101830.56;;;4.22;97.24
80585;BME280;70137;56.482;9.154;2024-01-25T07:32:59;101831.50;;;4.21;96.73
80585;BME280;70137;56.482;9.154;2024-01-25T07:35:24;101854.59;;;4.21;97.39
80585;BME280;70137;56.482;9.154;2024-01-25T07:37:49;101839.28;;;4.19;97.66
80585;BME280;70137;56.482;9.154;2024-01-25T07:40:15;101846.06;;;4.20;97.44
80585;BME280;70137;56.482;9.154;2024-01-25T07:42:40;101849.66;;;4.18;96.98
80585;BME280;70137;56.482;9.154;2024-01-25T07:45:06;101848.84;;;4.17;96.46
80585;BME280;70137;56.482;9.154;2024-01-25T07:47:32;101853.97;;;4.17;96.67
80585;BME280;70137;56.482;9.154;2024-01-25T07:49:57;101859.09;;;4.17;96.87
80585;BME280;70137;56.482;9.154;2024-01-25T07:52:23;101857.44;;;4.16;96.58
80585;BME280;70137;56.482;9.154;2024-01-25T07:54:48;101858.19;;;4.18;96.88
80585;BME280;70137;56.482;9.154;2024-01-25T07:57:14;101860.75;;;4.18;96.74
80585;BME280;70137;56.482;9.154;2024-01-25T07:59:39;101872.75;;;4.18;97.10
80585;BME280;70137;56.482;9.154;2024-01-25T08:02:04;101872.03;;;4.16;96.37
80585;BME280;70137;56.482;9.154;2024-01-25T08:04:30;101877.97;;;4.16;97.36
80585;BME280;70137;56.482;9.154;2024-01-25T08:06:55;101880.44;;;4.18;96.80
80585;BME280;70137;56.482;9.154;2024-01-25T08:09:21;101880.44;;;4.18;96.48
80585;BME280;70137;56.482;9.154;2024-01-25T08:11:47;101888.06;;;4.19;97.39
80585;BME280;70137;56.482;9.154;2024-01-25T08:14:12;101882.91;;;4.19;96.92
80585;BME280;70137;56.482;9.154;2024-01-25T08:16:38;101896.47;;;4.21;96.47
80585;BME280;70137;56.482;9.154;2024-01-25T08:19:03;101904.84;;;4.25;96.80
80585;BME280;70137;56.482;9.154;2024-01-25T08:21:29;101910.59;;;4.28;97.36
80585;BME280;70137;56.482;9.154;2024-01-25T08:23:55;101908.75;;;4.30;96.89
80585;BME280;70137;56.482;9.154;2024-01-25T08:26:20;101914.59;;;4.32;97.40
80585;BME280;70137;56.482;9.154;2024-01-25T08:28:46;101910.22;;;4.35;96.79
80585;BME280;70137;56.482;9.154;2024-01-25T08:31:12;101904.06;;;4.37;97.08
80585;BME280;70137;56.482;9.154;2024-01-25T08:33:38;101910.75;;;4.40;96.64
80585;BME280;70137;56.482;9.154;2024-01-25T08:36:09;101905.41;;;4.43;97.20
80585;BME280;70137;56.482;9.154;2024-01-25T08:38:34;101912.03;;;4.47;97.31
80585;BME280;70137;56.482;9.154;2024-01-25T08:41:00;101911.00;;;4.49;97.24
80585;BME280;70137;56.482;9.154;2024-01-25T08:43:25;101917.59;;;4.53;96.66
80585;BME280;70137;56.482;9.154;2024-01-25T08:45:50;101917.31;;;4.58;96.94
80585;BME280;70137;56.482;9.154;2024-01-25T08:48:16;101922.97;;;4.63;97.62
80585;BME280;70137;56.482;9.154;2024-01-25T08:50:41;101919.22;;;4.69;96.72
80585;BME280;70137;56.482;9.154;2024-01-25T08:53:06;101930.88;;;4.74;97.10
80585;BME280;70137;56.482;9.154;2024-01-25T08:55:32;101939.09;;;4.79;96.60
80585;BME280;70137;56.482;9.154;2024-01-25T08:57:57;101941.38;;;4.84;96.48
80585;BME280;70137;56.482;9.154;2024-01-25T09:00:23;101943.66;;;4.88;96.99
80585;BME280;70137;56.482;9.154;2024-01-25T09:02:48;101951.91;;;4.94;96.27
80585;BME280;70137;56.482;9.154;2024-01-25T09:05:14;101964.34;;;5.00;96.66
80585;BME280;70137;56.482;9.154;2024-01-25T09:07:40;101967.47;;;5.05;96.67
80585;BME280;70137;56.482;9.154;2024-01-25T09:10:05;101974.69;;;5.12;96.32
80585;BME280;70137;56.482;9.154;2024-01-25T09:12:31;101980.16;;;5.21;96.13
80585;BME280;70137;56.482;9.154;2024-01-25T09:14:56;101980.59;;;5.27;96.17
80585;BME280;70137;56.482;9.154;2024-01-25T09:17:21;101987.09;;;5.33;96.00
80585;BME280;70137;56.482;9.154;2024-01-25T09:19:50;101995.06;;;5.42;95.83
80585;BME280;70137;56.482;9.154;2024-01-25T09:22:16;102002.34;;;5.49;95.38
80585;BME280;70137;56.482;9.154;2024-01-25T09:24:44;101991.56;;;5.56;95.00
80585;BME280;70137;56.482;9.154;2024-01-25T09:27:09;101998.91;;;5.62;95.08
80585;BME280;70137;56.482;9.154;2024-01-25T09:29:35;101995.19;;;5.66;94.56
80585;BME280;70137;56.482;9.154;2024-01-25T09:32:00;102010.03;;;5.75;94.46
80585;BME280;70137;56.482;9.154;2024-01-25T09:34:26;102009.53;;;5.83;94.22
80585;BME280;70137;56.482;9.154;2024-01-25T09:36:51;102022.91;;;5.88;94.35
80585;BME280;70137;56.482;9.154;2024-01-25T09:39:17;102024.59;;;5.89;93.58
80585;BME280;70137;56.482;9.154;2024-01-25T09:41:43;102028.06;;;5.88;93.28
80585;BME280;70137;56.482;9.154;2024-01-25T09:44:09;102035.06;;;5.86;93.73
80585;BME280;70137;56.482;9.154;2024-01-25T09:46:34;102035.16;;;5.85;93.20
80585;BME280;70137;56.482;9.154;2024-01-25T09:49:00;102031.41;;;5.90;93.18
80585;BME280;70137;56.482;9.154;2024-01-25T09:51:26;102035.31;;;5.96;93.25
80585;BME280;70137;56.482;9.154;2024-01-25T09:53:53;102040.88;;;6.02;93.75
80585;BME280;70137;56.482;9.154;2024-01-25T09:56:20;102039.56;;;6.10;93.98
80585;BME280;70137;56.482;9.154;2024-01-25T09:58:46;102041.91;;;6.13;93.23
80585;BME280;70137;56.482;9.154;2024-01-25T10:01:14;102056.22;;;6.17;93.38
80585;BME280;70137;56.482;9.154;2024-01-25T10:03:45;102055.94;;;6.21;93.30
80585;BME280;70137;56.482;9.154;2024-01-25T10:06:12;102056.53;;;6.25;93.29
80585;BME280;70137;56.482;9.154;2024-01-25T10:08:38;102060.69;;;6.27;93.26
80585;BME280;70137;56.482;9.154;2024-01-25T10:11:04;102057.25;;;6.27;92.92
80585;BME280;70137;56.482;9.154;2024-01-25T10:13:29;102054.78;;;6.25;92.41
80585;BME280;70137;56.482;9.154;2024-01-25T10:15:55;102048.72;;;6.26;92.35
80585;BME280;70137;56.482;9.154;2024-01-25T10:18:25;102054.50;;;6.30;92.51
80585;BME280;70137;56.482;9.154;2024-01-25T10:20:53;102054.16;;;6.35;92.62
80585;BME280;70137;56.482;9.154;2024-01-25T10:23:18;102063.47;;;6.37;92.26
80585;BME280;70137;56.482;9.154;2024-01-25T10:25:43;102064.19;;;6.39;92.50
80585;BME280;70137;56.482;9.154;2024-01-25T10:28:09;102074.03;;;6.45;92.97
80585;BME280;70137;56.482;9.154;2024-01-25T10:30:35;102075.28;;;6.52;92.41
80585;BME280;70137;56.482;9.154;2024-01-25T10:33:02;102077.47;;;6.58;92.66
80585;BME280;70137;56.482;9.154;2024-01-25T10:35:28;102073.03;;;6.60;91.49
80585;BME280;70137;56.482;9.154;2024-01-25T10:37:54;102065.78;;;6.66;91.73
80585;BME280;70137;56.482;9.154;2024-01-25T10:40:20;102071.47;;;6.71;92.08
80585;BME280;70137;56.482;9.154;2024-01-25T10:42:46;102078.25;;;6.72;91.58
80585;BME280;70137;56.482;9.154;2024-01-25T10:45:12;102079.91;;;6.73;90.89
80585;BME280;70137;56.482;9.154;2024-01-25T10:47:38;102088.34;;;6.75;90.72
80585;BME280;70137;56.482;9.154;2024-01-25T10:50:07;102089.09;;;6.77;91.62
80585;BME280;70137;56.482;9.154;2024-01-25T10:52:37;102088.97;;;6.78;91.23
80585;BME280;70137;56.482;9.154;2024-01-25T10:55:04;102095.66;;;6.81;90.83
80585;BME280;70137;56.482;9.154;2024-01-25T10:57:38;102084.66;;;6.79;91.29
80585;BME280;70137;56.482;9.154;2024-01-25T11:00:10;102077.94;;;6.89;91.02
80585;BME280;70137;56.482;9.154;2024-01-25T11:02:36;102075.66;;;6.97;91.36
80585;BME280;70137;56.482;9.154;2024-01-25T11:05:02;102077.28;;;6.98;90.56
80585;BME280;70137;56.482;9.154;2024-01-25T11:07:41;102084.09;;;6.99;89.91
80585;BME280;70137;56.482;9.154;2024-01-25T11:10:11;102081.72;;;6.96;89.94
80585;BME280;70137;56.482;9.154;2024-01-25T11:12:59;102091.31;;;6.94;89.23
80585;BME280;70137;56.482;9.154;2024-01-25T11:15:33;102098.75;;;6.99;89.08
80585;BME280;70137;56.482;9.154;2024-01-25T11:17:59;102084.88;;;7.12;89.54
80585;BME280;70137;56.482;9.154;2024-01-25T11:20:26;102080.50;;;7.26;89.49
80585;BME280;70137;56.482;9.154;2024-01-25T11:22:59;102083.84;;;7.39;89.51
80585;BME280;70137;56.482;9.154;2024-01-25T11:25:36;102084.63;;;7.52;88.31
80585;BME280;70137;56.482;9.154;2024-01-25T11:28:04;102090.06;;;7.60;88.24
80585;BME280;70137;56.482;9.154;2024-01-25T11:30:32;102097.91;;;7.59;87.03
80585;BME280;70137;56.482;9.154;2024-01-25T11:32:58;102101.19;;;7.61;87.19
80585;BME280;70137;56.482;9.154;2024-01-25T11:35:24;102093.44;;;7.61;86.07
80585;BME280;70137;56.482;9.154;2024-01-25T11:37:50;102093.97;;;7.66;85.69
80585;BME280;70137;56.482;9.154;2024-01-25T11:40:19;102085.59;;;7.62;86.17
80585;BME280;70137;56.482;9.154;2024-01-25T11:42:50;102070.84;;;7.64;85.49
80585;BME280;70137;56.482;9.154;2024-01-25T11:45:16;102072.53;;;7.77;85.99
80585;BME280;70137;56.482;9.154;2024-01-25T11:47:42;102081.94;;;7.89;85.53
80585;BME280;70137;56.482;9.154;2024-01-25T11:50:10;102081.06;;;8.01;85.48
80585;BME280;70137;56.482;9.154;2024-01-25T11:52:36;102082.72;;;8.13;86.06
80585;BME280;70137;56.482;9.154;2024-01-25T11:55:03;102081.69;;;8.16;85.15
80585;BME280;70137;56.482;9.154;2024-01-25T11:57:30;102074.63;;;8.18;84.66
80585;BME280;70137;56.482;9.154;2024-01-25T11:59:57;102085.78;;;8.18;83.27
80585;BME280;70137;56.482;9.154;2024-01-25T12:02:23;102076.38;;;8.17;82.98
80585;BME280;70137;56.482;9.154;2024-01-25T12:04:49;102079.22;;;8.14;82.36
80585;BME280;70137;56.482;9.154;2024-01-25T12:07:15;102083.78;;;8.11;82.53
80585;BME280;70137;56.482;9.154;2024-01-25T12:09:40;102084.81;;;8.08;82.39
80585;BME280;70137;56.482;9.154;2024-01-25T12:12:06;102080.47;;;8.09;83.36
80585;BME280;70137;56.482;9.154;2024-01-25T12:14:31;102074.03;;;8.14;82.75
80585;BME280;70137;56.482;9.154;2024-01-25T12:16:57;102067.13;;;8.15;82.64
80585;BME280;70137;56.482;9.154;2024-01-25T12:19:22;102070.53;;;8.15;81.64
80585;BME280;70137;56.482;9.154;2024-01-25T12:21:48;102077.44;;;8.15;82.07
80585;BME280;70137;56.482;9.154;2024-01-25T12:24:13;102097.03;;;8.06;80.99
80585;BME280;70137;56.482;9.154;2024-01-25T12:26:39;102098.22;;;8.02;81.44
80585;BME280;70137;56.482;9.154;2024-01-25T12:29:06;102098.78;;;8.06;81.46
80585;BME280;70137;56.482;9.154;2024-01-25T12:31:33;102096.78;;;8.09;81.53
80585;BME280;70137;56.482;9.154;2024-01-25T12:34:00;102096.59;;;8.12;81.82
80585;BME280;70137;56.482;9.154;2024-01-25T12:36:25;102101.75;;;8.12;81.14
80585;BME280;70137;56.482;9.154;2024-01-25T12:38:50;102094.13;;;8.11;80.98
80585;BME280;70137;56.482;9.154;2024-01-25T12:41:16;102099.28;;;8.11;80.13
80585;BME280;70137;56.482;9.154;2024-01-25T12:43:41;102092.00;;;8.16;80.24
80585;BME280;70137;56.482;9.154;2024-01-25T12:46:07;102100.84;;;8.24;79.65
80585;BME280;70137;56.482;9.154;2024-01-25T12:48:32;102098.28;;;8.36;80.93
80585;BME280;70137;56.482;9.154;2024-01-25T12:50:57;102103.72;;;8.44;80.28
80585;BME280;70137;56.482;9.154;2024-01-25T12:53:23;102113.00;;;8.57;80.56